Lakeview Terrace, California
Current Conditions -  °F | °C
As of 6:51 PM on Sunday 21 Dec 2014 (Local Time) from KVNY Reporting Station
Clear Clear  
Wind Chill: 65°   Ceiling: Unl
Heat Index: 65°   Visibility: 10mi
Dew Point: 47°   Wind: 20mph
Humidity: 52%   Direction: 360°N
Pressure: 30.06"   Gusts: 29mph
Location:  34.2561°N, 118.42°W
Report Text: KVNY 220251Z 36017G25KT 10SM CLR 18/08 A3006 RMK AO2 PK WND 36030/0159 SLP172 T01830083 53008
Loading
Personal Weather Stations






























Interactive Weather Map New forecast layout! Learn more

10-Day Weather Forecast

Advertisements
Track Severe Weather on mobile